Time;durP1;ratioP1;P1;durP2;ratioP2;P2;SDS_P1;SDS_P2;PMS_P1;PMS_P2;Temp;Humidity;BMP_temperature;BMP_pressure;BME280_temperature;BME280_humidity;BME280_pressure;Samples;Min_cycle;Max_cycle;Signal;HPM_P1;HPM_P2
2022/06/13 00:01:57;;;;;;;;;;;21.50;99.90;;;;;;5072194;28;19958;-70
2022/06/13 00:04:23;;;;;;;;;;;21.50;99.90;;;;;;5072356;28;19916;-70
2022/06/13 00:06:48;;;;;;;;;;;21.40;99.90;;;;;;5072079;28;19935;-70
2022/06/13 00:09:14;;;;;;;;;;;21.40;99.90;;;;;;5072390;28;19917;-69
2022/06/13 00:11:40;;;;;;;;;;;21.40;99.90;;;;;;5072064;28;20332;-69
2022/06/13 00:14:05;;;;;;;;;;;21.30;99.90;;;;;;5070756;28;19920;-68
2022/06/13 00:16:31;;;;;;;;;;;21.30;99.90;;;;;;5072181;28;19915;-68
2022/06/13 00:18:56;;;;;;;;;;;21.20;99.90;;;;;;5072249;28;19931;-69
2022/06/13 00:21:27;;;;;;;;;;;21.20;99.90;;;;;;5072035;28;19916;-70
2022/06/13 00:23:52;;;;;;;;;;;21.20;99.90;;;;;;5072058;28;19920;-70
2022/06/13 00:26:21;;;;;;;;;;;21.20;99.90;;;;;;5071998;28;19943;-70
2022/06/13 00:28:47;;;;;;;;;;;21.10;99.90;;;;;;5071704;28;19931;-70
2022/06/13 00:31:13;;;;;;;;;;;21.10;99.90;;;;;;5071694;28;19958;-69
2022/06/13 00:33:38;;;;;;;;;;;21.00;99.90;;;;;;5071742;28;19999;-71
2022/06/13 00:36:04;;;;;;;;;;;21.00;99.90;;;;;;5071684;28;19909;-69
2022/06/13 00:38:29;;;;;;;;;;;20.90;99.90;;;;;;5071759;28;20376;-69
2022/06/13 00:40:55;;;;;;;;;;;20.90;99.90;;;;;;5071720;28;19971;-70
2022/06/13 00:43:20;;;;;;;;;;;20.90;99.90;;;;;;5071838;28;19918;-70
2022/06/13 00:45:46;;;;;;;;;;;20.90;99.90;;;;;;5072051;28;20310;-69
2022/06/13 00:48:12;;;;;;;;;;;20.90;99.90;;;;;;5071558;28;19909;-70
2022/06/13 00:50:40;;;;;;;;;;;20.80;99.90;;;;;;5072068;28;19917;-69
2022/06/13 00:53:11;;;;;;;;;;;20.80;99.90;;;;;;5071417;28;19908;-70
2022/06/13 00:55:38;;;;;;;;;;;20.80;99.90;;;;;;5071963;28;19927;-70
2022/06/13 00:58:04;;;;;;;;;;;20.80;99.90;;;;;;5071381;28;20276;-69
2022/06/13 01:00:30;;;;;;;;;;;20.70;99.90;;;;;;5071861;28;19916;-70
2022/06/13 01:02:56;;;;;;;;;;;20.80;99.90;;;;;;5071459;28;19912;-70
2022/06/13 01:05:24;;;;;;;;;;;20.70;99.90;;;;;;5071687;28;19927;-70
2022/06/13 01:07:50;;;;;;;;;;;20.70;99.90;;;;;;5071392;28;19908;-69
2022/06/13 01:13:01;;;;;;;;;;;20.70;99.90;;;;;;5071666;28;19951;-69
2022/06/13 01:15:45;;;;;;;;;;;20.60;99.90;;;;;;5071875;28;19920;-69
2022/06/13 01:18:11;;;;;;;;;;;20.60;99.90;;;;;;5071186;28;19915;-69
2022/06/13 01:20:56;;;;;;;;;;;20.60;99.90;;;;;;5070193;28;20280;-70
2022/06/13 01:23:22;;;;;;;;;;;20.60;99.90;;;;;;5071289;28;19935;-69
2022/06/13 01:26:06;;;;;;;;;;;20.60;99.90;;;;;;5071594;28;20384;-70
2022/06/13 01:28:41;;;;;;;;;;;20.50;99.90;;;;;;5071026;28;19962;-69
2022/06/13 01:31:25;;;;;;;;;;;20.50;99.90;;;;;;5071501;28;19916;-70
2022/06/13 01:33:59;;;;;;;;;;;20.50;99.90;;;;;;5071158;28;20347;-69
2022/06/13 01:36:30;;;;;;;;;;;20.50;99.90;;;;;;5071410;28;19913;-69
2022/06/13 01:39:04;;;;;;;;;;;20.40;99.90;;;;;;5071105;28;19966;-69
2022/06/13 01:41:35;;;;;;;;;;;20.40;99.90;;;;;;5071128;28;19920;-69
2022/06/13 01:44:13;;;;;;;;;;;20.40;99.90;;;;;;5071057;28;19940;-69
2022/06/13 01:46:54;;;;;;;;;;;20.40;99.90;;;;;;5070930;28;19923;-69
2022/06/13 01:49:19;;;;;;;;;;;20.30;99.90;;;;;;5069792;28;19936;-69
2022/06/13 01:51:54;;;;;;;;;;;20.40;99.90;;;;;;5070878;28;19913;-69
2022/06/13 01:54:20;;;;;;;;;;;20.30;99.90;;;;;;5070779;28;20384;-69
2022/06/13 01:56:53;;;;;;;;;;;20.30;99.90;;;;;;5071121;28;19912;-70
2022/06/13 01:59:22;;;;;;;;;;;20.20;99.90;;;;;;5071154;28;19920;-70
2022/06/13 02:01:52;;;;;;;;;;;20.20;99.90;;;;;;5070786;28;19962;-70
2022/06/13 02:04:22;;;;;;;;;;;20.10;99.90;;;;;;5070839;28;19920;-70
2022/06/13 02:06:50;;;;;;;;;;;20.10;99.90;;;;;;5070805;28;19912;-70
2022/06/13 02:09:21;;;;;;;;;;;20.00;99.90;;;;;;5072244;28;20348;-71
2022/06/13 02:11:48;;;;;;;;;;;20.10;99.90;;;;;;5074335;28;20003;-69
2022/06/13 02:14:20;;;;;;;;;;;20.00;99.90;;;;;;5074433;28;19916;-69
2022/06/13 02:17:12;;;;;;;;;;;20.00;99.90;;;;;;5074507;28;19912;-69
2022/06/13 02:19:37;;;;;;;;;;;20.00;99.90;;;;;;5069717;28;19912;-69
2022/06/13 02:22:19;;;;;;;;;;;20.00;99.90;;;;;;5074514;28;19969;-69
2022/06/13 02:24:50;;;;;;;;;;;20.00;99.90;;;;;;5073940;28;19920;-69
2022/06/13 02:27:17;;;;;;;;;;;19.90;99.90;;;;;;5074122;28;20288;-70
2022/06/13 02:30:04;;;;;;;;;;;19.90;99.90;;;;;;5073560;28;20474;-70
2022/06/13 02:32:32;;;;;;;;;;;19.90;99.90;;;;;;5072196;28;19912;-70
2022/06/13 02:35:02;;;;;;;;;;;20.00;99.90;;;;;;5074023;28;19916;-69
2022/06/13 02:37:33;;;;;;;;;;;19.90;99.90;;;;;;5073918;28;19913;-70
2022/06/13 02:40:01;;;;;;;;;;;20.00;99.90;;;;;;5074011;28;19912;-69
2022/06/13 02:42:43;;;;;;;;;;;19.90;99.90;;;;;;5072472;28;20019;-69
2022/06/13 02:45:27;;;;;;;;;;;19.90;99.90;;;;;;5073872;28;20391;-69
2022/06/13 02:47:55;;;;;;;;;;;20.00;99.90;;;;;;5073753;28;19913;-69
2022/06/13 02:50:24;;;;;;;;;;;20.00;99.90;;;;;;5073548;28;19912;-70
2022/06/13 02:52:52;;;;;;;;;;;20.00;99.90;;;;;;5073636;28;19913;-69
2022/06/13 02:55:17;;;;;;;;;;;20.00;99.90;;;;;;5073983;28;20372;-69
2022/06/13 02:57:55;;;;;;;;;;;19.90;99.90;;;;;;5073647;28;19916;-69
2022/06/13 03:00:26;;;;;;;;;;;20.00;99.90;;;;;;5073717;28;19952;-70
2022/06/13 03:03:01;;;;;;;;;;;20.00;99.90;;;;;;5073722;28;19913;-70
2022/06/13 03:05:45;;;;;;;;;;;19.90;99.90;;;;;;5073671;28;20210;-70
2022/06/13 03:08:16;;;;;;;;;;;20.00;99.90;;;;;;5073313;28;19912;-70
2022/06/13 03:10:49;;;;;;;;;;;20.00;99.90;;;;;;5073782;28;19913;-71
2022/06/13 03:13:22;;;;;;;;;;;20.10;99.90;;;;;;5073278;28;20208;-69
2022/06/13 03:15:50;;;;;;;;;;;20.10;99.90;;;;;;5073667;28;19921;-70
2022/06/13 03:18:23;;;;;;;;;;;20.10;99.90;;;;;;5071889;28;19913;-69
2022/06/13 03:20:59;;;;;;;;;;;20.20;99.90;;;;;;5072180;28;19974;-70
2022/06/13 03:23:25;;;;;;;;;;;20.10;99.90;;;;;;5073223;28;19920;-70
2022/06/13 03:25:54;;;;;;;;;;;20.20;99.90;;;;;;5072722;28;19917;-70
2022/06/13 03:28:25;;;;;;;;;;;20.30;99.90;;;;;;5072893;28;19931;-70
2022/06/13 03:30:55;;;;;;;;;;;20.20;99.90;;;;;;5071440;28;19923;-70
2022/06/13 03:33:40;;;;;;;;;;;20.30;99.90;;;;;;5072836;28;19915;-70
2022/06/13 03:36:26;;;;;;;;;;;20.20;99.90;;;;;;5072794;28;19923;-69
2022/06/13 03:39:01;;;;;;;;;;;20.20;99.90;;;;;;5065544;28;19962;-70
2022/06/13 03:41:31;;;;;;;;;;;20.20;99.90;;;;;;5072777;28;19956;-70
2022/06/13 03:44:17;;;;;;;;;;;20.40;99.90;;;;;;5072883;28;20279;-70
2022/06/13 03:47:01;;;;;;;;;;;20.40;99.90;;;;;;5072020;28;19916;-69
2022/06/13 03:49:29;;;;;;;;;;;20.40;99.90;;;;;;5072592;28;19917;-69
2022/06/13 03:51:57;;;;;;;;;;;20.40;99.90;;;;;;5072451;28;19913;-69
2022/06/13 03:54:22;;;;;;;;;;;20.30;99.90;;;;;;5072473;28;19919;-70
2022/06/13 03:56:54;;;;;;;;;;;20.30;99.90;;;;;;5072355;28;20288;-69
2022/06/13 03:59:25;;;;;;;;;;;20.30;99.90;;;;;;5072370;28;19920;-70
2022/06/13 04:02:11;;;;;;;;;;;20.40;99.90;;;;;;5070910;28;19927;-69
2022/06/13 04:04:43;;;;;;;;;;;20.40;99.90;;;;;;5072300;28;19927;-69
2022/06/13 04:07:09;;;;;;;;;;;20.40;99.90;;;;;;5072612;28;19913;-69
2022/06/13 04:09:37;;;;;;;;;;;20.40;99.90;;;;;;5072242;28;20257;-69
2022/06/13 04:12:11;;;;;;;;;;;20.30;99.90;;;;;;5072122;28;19916;-69
2022/06/13 04:14:40;;;;;;;;;;;20.40;99.90;;;;;;5070688;28;19990;-69
2022/06/13 04:17:18;;;;;;;;;;;20.40;99.90;;;;;;5072074;28;19913;-70
2022/06/13 04:19:59;;;;;;;;;;;20.40;99.90;;;;;;5072264;28;19920;-69
2022/06/13 04:22:37;;;;;;;;;;;20.40;99.90;;;;;;5071936;28;19913;-69
2022/06/13 04:25:35;;;;;;;;;;;20.50;99.90;;;;;;5071975;28;19966;-69
2022/06/13 04:28:06;;;;;;;;;;;20.50;99.90;;;;;;5048478;28;19961;-70
2022/06/13 04:30:32;;;;;;;;;;;20.50;99.90;;;;;;5072055;28;19964;-69
2022/06/13 04:33:02;;;;;;;;;;;20.50;99.90;;;;;;5071876;28;20368;-69
2022/06/13 04:35:29;;;;;;;;;;;20.60;99.90;;;;;;5072125;28;19921;-69
2022/06/13 04:37:54;;;;;;;;;;;20.60;99.90;;;;;;5071773;28;19908;-68
2022/06/13 04:40:21;;;;;;;;;;;20.60;99.90;;;;;;5072205;28;19922;-69
2022/06/13 04:42:48;;;;;;;;;;;20.60;99.90;;;;;;5071727;28;19913;-69
2022/06/13 04:45:18;;;;;;;;;;;20.60;99.90;;;;;;5072019;28;19985;-69
2022/06/13 04:47:44;;;;;;;;;;;20.70;99.90;;;;;;5071871;28;19912;-70
2022/06/13 04:50:14;;;;;;;;;;;20.70;99.90;;;;;;5070593;28;19923;-70
2022/06/13 04:52:40;;;;;;;;;;;20.70;99.90;;;;;;5071670;28;19908;-69
2022/06/13 04:55:09;;;;;;;;;;;20.70;99.90;;;;;;5071740;28;19959;-70
2022/06/13 04:57:34;;;;;;;;;;;20.60;99.90;;;;;;5071493;28;19926;-69
2022/06/13 05:00:02;;;;;;;;;;;20.70;99.90;;;;;;5071457;28;19917;-69
2022/06/13 05:02:36;;;;;;;;;;;20.70;99.90;;;;;;5071339;28;19912;-69
2022/06/13 05:05:02;;;;;;;;;;;20.80;99.90;;;;;;5071633;28;19927;-69
2022/06/13 05:07:27;;;;;;;;;;;21.00;99.90;;;;;;5069934;28;19908;-69
2022/06/13 05:10:00;;;;;;;;;;;21.00;99.90;;;;;;5071627;28;19916;-69
2022/06/13 05:12:25;;;;;;;;;;;21.10;99.90;;;;;;5069910;28;19948;-69
2022/06/13 05:14:51;;;;;;;;;;;21.20;99.90;;;;;;5071569;28;19963;-70
2022/06/13 05:17:22;;;;;;;;;;;21.30;99.90;;;;;;5071313;28;19917;-69
2022/06/13 05:20:06;;;;;;;;;;;21.30;99.90;;;;;;5071561;28;19942;-70
2022/06/13 05:22:35;;;;;;;;;;;21.40;99.90;;;;;;5071259;28;19908;-70
2022/06/13 05:25:09;;;;;;;;;;;21.40;99.90;;;;;;5071525;28;19927;-69
2022/06/13 05:27:35;;;;;;;;;;;21.50;99.90;;;;;;5070882;28;19908;-69
2022/06/13 05:30:01;;;;;;;;;;;21.60;99.90;;;;;;5071048;28;20300;-69
2022/06/13 05:32:26;;;;;;;;;;;21.70;99.90;;;;;;5071002;28;19962;-69
2022/06/13 05:34:52;;;;;;;;;;;21.70;99.90;;;;;;5071484;28;20323;-69
2022/06/13 05:37:18;;;;;;;;;;;21.80;99.90;;;;;;5069687;28;19971;-69
2022/06/13 05:39:44;;;;;;;;;;;21.80;99.90;;;;;;5071346;28;20006;-70
2022/06/13 05:42:11;;;;;;;;;;;21.90;99.90;;;;;;5070923;28;19913;-69
2022/06/13 05:44:37;;;;;;;;;;;22.00;99.90;;;;;;5073239;28;20370;-69
2022/06/13 05:47:03;;;;;;;;;;;22.00;99.90;;;;;;5074714;28;19965;-69
2022/06/13 05:49:28;;;;;;;;;;;22.10;99.90;;;;;;5075201;28;19921;-69
2022/06/13 05:51:55;;;;;;;;;;;22.20;99.90;;;;;;5074752;28;19986;-69
2022/06/13 05:54:20;;;;;;;;;;;22.20;99.90;;;;;;5074958;28;20352;-69
2022/06/13 05:56:46;;;;;;;;;;;22.20;99.90;;;;;;5073286;28;19912;-68
2022/06/13 05:59:11;;;;;;;;;;;22.30;99.90;;;;;;5074645;28;19913;-69
2022/06/13 06:01:38;;;;;;;;;;;22.30;99.90;;;;;;5074846;28;19966;-68
2022/06/13 06:04:04;;;;;;;;;;;22.40;99.90;;;;;;5073151;28;19913;-69
2022/06/13 06:06:30;;;;;;;;;;;22.50;99.90;;;;;;5074379;28;19920;-69
2022/06/13 06:08:56;;;;;;;;;;;22.60;99.90;;;;;;5074545;28;19913;-69
2022/06/13 06:11:23;;;;;;;;;;;22.60;99.90;;;;;;5074151;28;19913;-69
2022/06/13 06:13:49;;;;;;;;;;;22.70;99.90;;;;;;5074470;28;20011;-69
2022/06/13 06:16:15;;;;;;;;;;;22.70;99.90;;;;;;5074642;28;20023;-68
2022/06/13 06:18:41;;;;;;;;;;;22.80;99.90;;;;;;5074345;28;20450;-69
2022/06/13 06:21:06;;;;;;;;;;;22.80;99.90;;;;;;5074544;28;19916;-68
2022/06/13 06:23:32;;;;;;;;;;;22.80;99.90;;;;;;5073894;28;19909;-70
2022/06/13 06:25:58;;;;;;;;;;;22.90;99.90;;;;;;5072595;28;19920;-71
2022/06/13 06:28:25;;;;;;;;;;;23.00;99.90;;;;;;5073872;28;20380;-70
2022/06/13 06:30:51;;;;;;;;;;;23.10;99.90;;;;;;5074027;28;19923;-70
2022/06/13 06:33:16;;;;;;;;;;;23.10;99.90;;;;;;5073867;28;20355;-70
2022/06/13 06:35:42;;;;;;;;;;;23.20;99.90;;;;;;5074566;28;19913;-69
2022/06/13 06:38:09;;;;;;;;;;;23.10;99.90;;;;;;5073788;28;20380;-70
2022/06/13 06:40:35;;;;;;;;;;;23.20;99.90;;;;;;5074291;28;19967;-70
2022/06/13 06:43:00;;;;;;;;;;;23.20;99.90;;;;;;5074207;28;20327;-69
2022/06/13 06:45:26;;;;;;;;;;;23.30;99.90;;;;;;5074257;28;19923;-69
2022/06/13 06:47:53;;;;;;;;;;;23.40;99.90;;;;;;5073721;28;20305;-69
2022/06/13 06:50:20;;;;;;;;;;;22.70;99.90;;;;;;5074195;28;19919;-70
2022/06/13 06:52:46;;;;;;;;;;;23.60;99.90;;;;;;5073399;28;19985;-68
2022/06/13 07:00:41;;;;;;;;;;;23.90;99.90;;;;;;5074240;28;19939;-68
2022/06/13 07:03:06;;;;;;;;;;;24.00;99.90;;;;;;5073611;28;19920;-69
2022/06/13 07:05:32;;;;;;;;;;;24.10;99.90;;;;;;5073762;28;20302;-70
2022/06/13 07:07:57;;;;;;;;;;;24.00;99.90;;;;;;5073271;28;19916;-69
2022/06/13 07:10:23;;;;;;;;;;;24.10;99.90;;;;;;5073371;28;19919;-69
2022/06/13 07:12:49;;;;;;;;;;;24.10;99.90;;;;;;5073442;28;20384;-69
2022/06/13 07:15:15;;;;;;;;;;;24.20;99.90;;;;;;5073694;28;20017;-70
2022/06/13 07:17:40;;;;;;;;;;;24.20;99.90;;;;;;5073414;28;19971;-69
2022/06/13 07:20:06;;;;;;;;;;;24.20;99.90;;;;;;5073532;28;19934;-70
2022/06/13 07:22:32;;;;;;;;;;;24.30;99.90;;;;;;5072962;28;19927;-70
2022/06/13 07:24:57;;;;;;;;;;;24.40;99.90;;;;;;5073200;28;19923;-70
2022/06/13 07:27:23;;;;;;;;;;;24.50;99.90;;;;;;5072837;28;19938;-72
2022/06/13 07:29:48;;;;;;;;;;;24.70;99.90;;;;;;5073329;28;19924;-71
2022/06/13 07:32:16;;;;;;;;;;;24.70;99.90;;;;;;5072825;28;20315;-72
2022/06/13 07:34:42;;;;;;;;;;;24.70;99.90;;;;;;5073167;28;19916;-71
2022/06/13 07:37:10;;;;;;;;;;;24.90;99.90;;;;;;5072921;28;19909;-72
2022/06/13 07:39:35;;;;;;;;;;;24.80;99.90;;;;;;5072651;28;19924;-71
2022/06/13 07:42:01;;;;;;;;;;;25.00;99.90;;;;;;5072661;28;20357;-72
2022/06/13 07:44:28;;;;;;;;;;;25.20;99.90;;;;;;5072884;28;19922;-72
2022/06/13 07:46:54;;;;;;;;;;;25.50;99.90;;;;;;5072810;28;20341;-71
2022/06/13 07:49:20;;;;;;;;;;;25.50;99.90;;;;;;5072672;28;19952;-71
2022/06/13 07:51:45;;;;;;;;;;;25.70;99.90;;;;;;5072384;28;19991;-72
2022/06/13 07:54:11;;;;;;;;;;;25.80;99.90;;;;;;5072091;28;20049;-71
2022/06/13 07:56:38;;;;;;;;;;;25.90;99.90;;;;;;5072293;28;19916;-72
2022/06/13 07:59:04;;;;;;;;;;;26.10;99.90;;;;;;5072424;28;19916;-70
2022/06/13 08:01:29;;;;;;;;;;;26.30;99.90;;;;;;5072275;28;19908;-70
2022/06/13 08:03:55;;;;;;;;;;;26.50;99.90;;;;;;5070819;28;20251;-70
2022/06/13 08:06:21;;;;;;;;;;;26.60;99.90;;;;;;5071599;28;19912;-70
2022/06/13 08:08:47;;;;;;;;;;;26.80;99.80;;;;;;5071988;28;19962;-70
2022/06/13 08:11:17;;;;;;;;;;;27.00;99.60;;;;;;5072228;28;20000;-70
2022/06/13 08:13:42;;;;;;;;;;;27.00;99.90;;;;;;5072223;28;19912;-71
2022/06/13 08:16:09;;;;;;;;;;;27.20;99.60;;;;;;5072182;28;19915;-70
2022/06/13 08:18:34;;;;;;;;;;;27.10;98.90;;;;;;5071890;28;20054;-70
2022/06/13 08:21:00;;;;;;;;;;;27.10;99.00;;;;;;5072242;28;19999;-68
2022/06/13 08:23:26;;;;;;;;;;;27.40;99.00;;;;;;5071817;28;20325;-68
2022/06/13 08:25:51;;;;;;;;;;;27.50;98.20;;;;;;5071807;28;19912;-68
2022/06/13 08:28:17;;;;;;;;;;;27.70;98.10;;;;;;5071531;28;20015;-67
2022/06/13 08:30:45;;;;;;;;;;;27.80;98.40;;;;;;5071746;28;20375;-66
2022/06/13 08:33:11;;;;;;;;;;;27.80;98.40;;;;;;5071417;28;20000;-66
2022/06/13 08:35:37;;;;;;;;;;;27.90;98.20;;;;;;5071962;28;20007;-66
2022/06/13 08:38:05;;;;;;;;;;;28.10;98.20;;;;;;5071507;28;20304;-66
2022/06/13 08:40:39;;;;;;;;;;;28.10;97.80;;;;;;5071753;28;19920;-66
2022/06/13 08:43:19;;;;;;;;;;;28.00;98.00;;;;;;5071915;28;20258;-67
2022/06/13 08:45:53;;;;;;;;;;;28.00;98.40;;;;;;5071492;28;20212;-66
2022/06/13 08:48:30;;;;;;;;;;;28.00;98.40;;;;;;5071440;28;19912;-66
2022/06/13 08:50:59;;;;;;;;;;;28.00;98.00;;;;;;5071743;28;19916;-66
2022/06/13 08:53:28;;;;;;;;;;;27.90;97.90;;;;;;5071417;28;20368;-66
2022/06/13 08:55:59;;;;;;;;;;;28.00;97.50;;;;;;5071323;28;19912;-67
2022/06/13 08:58:24;;;;;;;;;;;28.20;96.80;;;;;;5071251;28;20294;-67
2022/06/13 09:00:55;;;;;;;;;;;28.30;96.50;;;;;;5071186;28;19948;-67
2022/06/13 09:03:28;;;;;;;;;;;28.40;96.20;;;;;;5071184;28;19908;-67
2022/06/13 09:06:00;;;;;;;;;;;28.60;95.80;;;;;;5071214;28;19924;-66
2022/06/13 09:08:46;;;;;;;;;;;28.90;95.60;;;;;;5071337;28;19970;-67
2022/06/13 09:11:16;;;;;;;;;;;29.10;95.20;;;;;;5071413;28;20007;-63
2022/06/13 09:13:50;;;;;;;;;;;29.20;95.20;;;;;;5071106;28;19908;-66
2022/06/13 09:16:20;;;;;;;;;;;29.40;94.00;;;;;;5071181;28;19916;-66
2022/06/13 09:19:07;;;;;;;;;;;29.50;93.30;;;;;;5071644;28;19924;-67
2022/06/13 09:21:37;;;;;;;;;;;29.70;92.90;;;;;;5073710;28;19913;-67
2022/06/13 09:24:12;;;;;;;;;;;29.90;92.30;;;;;;5074151;28;19913;-66
2022/06/13 09:26:40;;;;;;;;;;;30.10;91.70;;;;;;5074994;28;20006;-66
2022/06/13 09:29:32;;;;;;;;;;;30.20;90.90;;;;;;5074983;28;20074;-66
2022/06/13 09:32:00;;;;;;;;;;;30.30;91.00;;;;;;5070644;28;19912;-67
2022/06/13 09:34:36;;;;;;;;;;;30.30;89.70;;;;;;5075111;28;19926;-67
2022/06/13 09:37:09;;;;;;;;;;;30.40;90.00;;;;;;5074889;28;20010;-67
2022/06/13 09:39:36;;;;;;;;;;;30.50;89.60;;;;;;5073674;28;19916;-67
2022/06/13 09:42:20;;;;;;;;;;;30.50;89.70;;;;;;5075154;28;19991;-67
2022/06/13 09:44:45;;;;;;;;;;;30.30;88.50;;;;;;5074961;28;20007;-67
2022/06/13 09:47:23;;;;;;;;;;;30.10;88.80;;;;;;5075109;28;19937;-67
2022/06/13 09:49:52;;;;;;;;;;;30.20;89.60;;;;;;5073279;28;20014;-67
2022/06/13 09:52:34;;;;;;;;;;;30.40;87.60;;;;;;5074678;28;19916;-67
2022/06/13 09:54:59;;;;;;;;;;;30.70;85.50;;;;;;5074696;28;19966;-66
2022/06/13 09:57:25;;;;;;;;;;;30.70;82.40;;;;;;5073239;28;19995;-66
2022/06/13 09:59:53;;;;;;;;;;;30.60;83.10;;;;;;5074705;28;19927;-67
2022/06/13 10:02:30;;;;;;;;;;;30.60;81.60;;;;;;5074569;28;19920;-66
2022/06/13 10:04:59;;;;;;;;;;;30.80;81.20;;;;;;5074888;28;20039;-68
2022/06/13 10:07:47;;;;;;;;;;;31.10;79.40;;;;;;5074751;28;20234;-65
2022/06/13 10:10:18;;;;;;;;;;;31.30;80.40;;;;;;5069238;28;19925;-66
2022/06/13 10:13:14;;;;;;;;;;;31.40;80.40;;;;;;5074291;28;19912;-66
2022/06/13 10:15:43;;;;;;;;;;;31.40;78.40;;;;;;5073809;28;19920;-66
2022/06/13 10:18:11;;;;;;;;;;;31.50;76.50;;;;;;5074183;28;20367;-66
2022/06/13 10:20:53;;;;;;;;;;;31.70;76.40;;;;;;5074038;28;19916;-67
2022/06/13 10:23:28;;;;;;;;;;;31.90;75.10;;;;;;5074248;28;20368;-66
2022/06/13 10:26:12;;;;;;;;;;;32.20;75.30;;;;;;5073776;28;19965;-66
2022/06/13 10:28:40;;;;;;;;;;;32.20;75.90;;;;;;5072776;28;20027;-66
2022/06/13 10:31:17;;;;;;;;;;;32.50;76.30;;;;;;5073547;28;19912;-66
2022/06/13 10:33:43;;;;;;;;;;;32.40;76.10;;;;;;5073969;28;19924;-66
2022/06/13 10:36:22;;;;;;;;;;;32.30;78.20;;;;;;5073987;28;20232;-66
2022/06/13 10:39:02;;;;;;;;;;;32.00;77.70;;;;;;5073890;28;19938;-66
2022/06/13 10:41:28;;;;;;;;;;;31.80;76.90;;;;;;5074098;28;20320;-66
2022/06/13 10:43:55;;;;;;;;;;;31.90;75.30;;;;;;5073697;28;20360;-66
2022/06/13 10:46:20;;;;;;;;;;;32.10;75.30;;;;;;5073983;28;19916;-66
2022/06/13 10:48:52;;;;;;;;;;;32.20;74.20;;;;;;5073668;28;19995;-66
2022/06/13 10:51:18;;;;;;;;;;;32.20;75.50;;;;;;5073865;28;19916;-66
2022/06/13 10:53:57;;;;;;;;;;;31.90;75.80;;;;;;5073733;28;20294;-66
2022/06/13 10:56:38;;;;;;;;;;;31.90;76.20;;;;;;5073757;28;20423;-66
2022/06/13 10:59:03;;;;;;;;;;;31.70;77.30;;;;;;5073592;28;20010;-66
2022/06/13 11:01:30;;;;;;;;;;;31.30;75.60;;;;;;5073480;28;20015;-66
2022/06/13 11:04:04;;;;;;;;;;;31.20;76.10;;;;;;5073347;28;19966;-67
2022/06/13 11:06:48;;;;;;;;;;;30.90;78.30;;;;;;5073097;28;19916;-66
2022/06/13 11:09:32;;;;;;;;;;;30.40;78.20;;;;;;5073501;28;19913;-67
2022/06/13 11:11:59;;;;;;;;;;;30.00;77.80;;;;;;5073126;28;19916;-67
2022/06/13 11:14:27;;;;;;;;;;;29.80;79.00;;;;;;5073270;28;19920;-66
2022/06/13 11:22:38;;;;;;;;;;;29.60;79.80;;;;;;5073236;28;19923;-66
2022/06/13 11:25:15;;;;;;;;;;;29.70;79.10;;;;;;5073148;28;20007;-66
2022/06/13 11:27:41;;;;;;;;;;;30.10;78.60;;;;;;5072817;28;19919;-67
2022/06/13 11:30:25;;;;;;;;;;;30.60;76.10;;;;;;5072975;28;19924;-67
2022/06/13 11:33:03;;;;;;;;;;;30.70;76.40;;;;;;5072753;28;19999;-66
2022/06/13 11:35:31;;;;;;;;;;;30.80;76.10;;;;;;5073031;28;19920;-67
2022/06/13 11:38:17;;;;;;;;;;;30.50;76.20;;;;;;5072406;28;19950;-67
2022/06/13 11:40:45;;;;;;;;;;;30.50;75.60;;;;;;5072874;28;20007;-66
2022/06/13 11:43:35;;;;;;;;;;;30.60;75.10;;;;;;5071927;28;19908;-67
2022/06/13 11:46:02;;;;;;;;;;;30.80;74.80;;;;;;5072449;28;19932;-67
2022/06/13 11:48:28;;;;;;;;;;;31.30;73.30;;;;;;5072239;28;20379;-66
2022/06/13 11:50:55;;;;;;;;;;;31.50;73.70;;;;;;5072539;28;19954;-67
2022/06/13 11:53:35;;;;;;;;;;;31.60;72.40;;;;;;5072313;28;20283;-69
2022/06/13 11:56:02;;;;;;;;;;;31.80;69.50;;;;;;5072278;28;19956;-77
2022/06/13 11:58:30;;;;;;;;;;;31.90;70.30;;;;;;5072008;28;20485;-76
2022/06/13 12:01:21;;;;;;;;;;;32.00;70.80;;;;;;5071386;28;19909;-76
2022/06/13 12:03:49;;;;;;;;;;;32.00;70.00;;;;;;5069846;28;19925;-75
2022/06/13 12:06:16;;;;;;;;;;;31.70;69.30;;;;;;5072431;28;20003;-76
2022/06/13 12:08:47;;;;;;;;;;;31.60;69.90;;;;;;5072888;28;19912;-76
2022/06/13 12:11:13;;;;;;;;;;;31.70;68.80;;;;;;5072313;28;20020;-75
2022/06/13 12:13:41;;;;;;;;;;;31.30;70.00;;;;;;5070562;28;20020;-76
2022/06/13 12:16:25;;;;;;;;;;;30.70;70.20;;;;;;5069720;28;19912;-67
2022/06/13 12:18:51;;;;;;;;;;;30.20;70.90;;;;;;5071864;28;19916;-67
2022/06/13 12:21:22;;;;;;;;;;;29.70;71.80;;;;;;5072145;28;19996;-66
2022/06/13 12:23:53;;;;;;;;;;;29.40;72.10;;;;;;5071703;28;20430;-67
2022/06/13 12:26:24;;;;;;;;;;;29.20;72.50;;;;;;5071665;28;20384;-67
2022/06/13 12:28:55;;;;;;;;;;;29.00;72.00;;;;;;5071537;28;19924;-66
2022/06/13 12:31:32;;;;;;;;;;;28.90;72.60;;;;;;5071545;28;19915;-66
2022/06/13 12:34:12;;;;;;;;;;;28.80;71.60;;;;;;5071812;28;20505;-67
2022/06/13 12:36:44;;;;;;;;;;;28.70;72.50;;;;;;5071670;28;19912;-67
2022/06/13 12:39:25;;;;;;;;;;;28.70;73.20;;;;;;5071728;28;20007;-67
2022/06/13 12:42:05;;;;;;;;;;;28.70;73.70;;;;;;5071455;28;19908;-67
2022/06/13 12:44:49;;;;;;;;;;;28.70;72.50;;;;;;5071452;28;20007;-67
2022/06/13 12:47:20;;;;;;;;;;;28.50;72.70;;;;;;5071408;28;19912;-67
2022/06/13 12:49:47;;;;;;;;;;;28.40;72.50;;;;;;5071962;28;19916;-67
2022/06/13 12:52:12;;;;;;;;;;;28.50;72.10;;;;;;5071649;28;19915;-67
2022/06/13 12:54:38;;;;;;;;;;;28.70;72.30;;;;;;5071026;28;20350;-67
2022/06/13 12:57:03;;;;;;;;;;;28.80;71.30;;;;;;5071662;28;19909;-67
2022/06/13 12:59:48;;;;;;;;;;;28.90;71.50;;;;;;5071353;28;19916;-67
2022/06/13 13:02:32;;;;;;;;;;;28.90;70.30;;;;;;5071231;28;19999;-67
2022/06/13 13:05:04;;;;;;;;;;;28.90;70.40;;;;;;5071558;28;19916;-67
2022/06/13 13:07:49;;;;;;;;;;;28.80;70.00;;;;;;5071248;28;19931;-67
2022/06/13 13:10:33;;;;;;;;;;;28.80;70.30;;;;;;5064132;28;19917;-67
2022/06/13 13:13:17;;;;;;;;;;;28.80;69.60;;;;;;5071219;28;19952;-67
2022/06/13 13:15:49;;;;;;;;;;;28.80;69.30;;;;;;5071486;28;20352;-67
2022/06/13 13:18:33;;;;;;;;;;;28.80;68.90;;;;;;5071146;28;20378;-67
2022/06/13 13:21:04;;;;;;;;;;;28.70;70.00;;;;;;5070860;28;20195;-67
2022/06/13 13:23:33;;;;;;;;;;;28.60;67.70;;;;;;5069280;28;19908;-67
2022/06/13 13:26:17;;;;;;;;;;;28.50;67.90;;;;;;5070981;28;19921;-67
2022/06/13 13:28:48;;;;;;;;;;;28.50;68.80;;;;;;5070761;28;19975;-67
2022/06/13 13:31:13;;;;;;;;;;;28.50;67.40;;;;;;5070821;28;19956;-67
2022/06/13 13:33:46;;;;;;;;;;;28.40;67.00;;;;;;5071008;28;19951;-67
2022/06/13 13:36:12;;;;;;;;;;;28.40;67.20;;;;;;5071020;28;20334;-67
2022/06/13 13:38:40;;;;;;;;;;;28.30;66.80;;;;;;5071111;28;19913;-66
2022/06/13 13:41:12;;;;;;;;;;;28.10;66.30;;;;;;5070858;28;20313;-67
2022/06/13 13:44:04;;;;;;;;;;;28.10;65.90;;;;;;5070903;28;19985;-67
2022/06/13 13:46:34;;;;;;;;;;;28.00;65.30;;;;;;5054266;28;20399;-67
2022/06/13 13:49:01;;;;;;;;;;;27.90;65.30;;;;;;5070820;28;20509;-67
2022/06/13 13:51:33;;;;;;;;;;;27.90;66.10;;;;;;5070713;28;19912;-67
2022/06/13 13:54:04;;;;;;;;;;;27.90;65.60;;;;;;5070699;28;19982;-67
2022/06/13 13:56:37;;;;;;;;;;;27.80;65.20;;;;;;5069554;28;20383;-67
2022/06/13 13:59:03;;;;;;;;;;;27.80;64.50;;;;;;5070552;28;19917;-67
2022/06/13 14:01:40;;;;;;;;;;;27.70;63.90;;;;;;5070686;28;19939;-67
2022/06/13 14:04:24;;;;;;;;;;;27.70;62.40;;;;;;5070418;28;19939;-67
2022/06/13 14:06:54;;;;;;;;;;;27.70;61.90;;;;;;5074066;28;19916;-67
2022/06/13 14:09:20;;;;;;;;;;;27.70;61.50;;;;;;5074178;28;19978;-67
2022/06/13 14:12:08;;;;;;;;;;;27.80;61.30;;;;;;5074021;28;20434;-67
2022/06/13 14:14:51;;;;;;;;;;;27.80;62.40;;;;;;5074020;28;19916;-66
2022/06/13 14:17:21;;;;;;;;;;;27.80;62.80;;;;;;5074012;28;19943;-66
2022/06/13 14:19:51;;;;;;;;;;;27.80;62.80;;;;;;5074380;28;20301;-66
2022/06/13 14:22:19;;;;;;;;;;;27.80;62.60;;;;;;5074130;28;20345;-66
2022/06/13 14:24:47;;;;;;;;;;;27.80;63.50;;;;;;5072673;28;19952;-65
2022/06/13 14:27:12;;;;;;;;;;;27.70;62.90;;;;;;5074003;28;19923;-66
2022/06/13 14:29:42;;;;;;;;;;;27.70;62.80;;;;;;5073738;28;19928;-67
2022/06/13 14:32:16;;;;;;;;;;;27.60;62.60;;;;;;5072695;28;20380;-68
2022/06/13 14:37:42;;;;;;;;;;;27.50;64.20;;;;;;5072019;28;19935;-71
2022/06/13 14:40:15;;;;;;;;;;;27.50;64.00;;;;;;5073501;28;20011;-71
2022/06/13 14:42:52;;;;;;;;;;;27.50;64.30;;;;;;5072434;28;19973;-71
2022/06/13 14:45:21;;;;;;;;;;;27.50;63.70;;;;;;5074056;28;19928;-71
2022/06/13 14:47:56;;;;;;;;;;;27.40;63.70;;;;;;5073003;28;19912;-71
2022/06/13 14:50:36;;;;;;;;;;;27.40;64.10;;;;;;5073869;28;19917;-70
2022/06/13 14:53:37;;;;;;;;;;;27.30;64.10;;;;;;5073565;28;19908;-71
2022/06/13 14:56:12;;;;;;;;;;;27.30;64.70;;;;;;5030155;28;19925;-71